createdAt,value
2017-03-19T14:16:06.719Z,64.7
2017-03-19T14:26:08.997Z,65.9
2017-03-19T14:31:10.140Z,66.5
2017-03-19T14:36:11.337Z,66.8
2017-03-19T14:41:12.505Z,66.9
2017-03-19T14:46:13.610Z,64.5
2017-03-19T14:51:14.745Z,64.8
2017-03-19T14:56:15.899Z,64.6
2017-03-19T15:01:16.990Z,64.7
2017-03-19T15:06:18.064Z,64.9
2017-03-19T15:11:19.085Z,65.4
2017-03-19T15:16:20.176Z,65.5
2017-03-19T15:21:21.303Z,65.5
2017-03-19T15:26:22.388Z,67.7
2017-03-19T15:31:23.576Z,62.9
2017-03-19T15:36:24.680Z,61.9
2017-03-19T15:41:25.815Z,61.3
2017-03-19T15:46:26.971Z,60.8
2017-03-19T15:51:28.113Z,60.8
2017-03-19T15:56:29.247Z,60.6
2017-03-19T16:01:30.381Z,60.4
2017-03-19T16:06:31.448Z,60.2
2017-03-19T16:11:32.513Z,60.1
2017-03-19T16:16:33.637Z,60
2017-03-19T16:21:34.693Z,59.9
2017-03-19T16:26:35.806Z,59.8
2017-03-19T16:31:36.928Z,59.8
2017-03-19T16:36:38.036Z,59.7
2017-03-19T16:41:39.143Z,59.9
2017-03-19T16:46:40.239Z,60.1
2017-03-19T16:51:41.404Z,60
2017-03-19T16:56:42.473Z,60.1
2017-03-19T17:01:43.607Z,60.3
2017-03-19T17:06:44.712Z,60.3
2017-03-19T17:11:45.804Z,60.2
2017-03-19T17:16:46.936Z,60.2
2017-03-19T17:21:48.040Z,60.3
2017-03-19T17:26:49.160Z,60.2
2017-03-19T17:31:50.275Z,60.1
2017-03-19T17:36:51.411Z,60.3
2017-03-19T17:41:52.523Z,60.2
2017-03-19T17:46:53.644Z,60.2
2017-03-19T17:51:54.756Z,60.2
2017-03-19T17:56:55.855Z,60.4
2017-03-19T18:01:56.962Z,60.5
2017-03-19T18:06:58.048Z,60.5
2017-03-19T18:11:59.224Z,60.6
2017-03-19T18:17:00.382Z,60.9
2017-03-19T18:22:01.537Z,61.2
2017-03-19T18:27:02.626Z,61.2
2017-03-19T18:32:03.781Z,61.6
2017-03-19T18:37:04.887Z,62
2017-03-19T18:42:05.909Z,62.1
2017-03-19T18:47:07.021Z,62.1
2017-03-19T18:52:08.175Z,62.2
2017-03-19T18:57:09.271Z,62.1
2017-03-19T19:02:10.377Z,62.1
2017-03-19T19:07:11.493Z,61.7
2017-03-19T19:12:12.631Z,61.5
2017-03-19T19:17:13.696Z,61.5
2017-03-19T19:22:14.854Z,61.4
2017-03-19T19:27:16.013Z,61.2
2017-03-19T19:32:17.117Z,60.9
2017-03-19T19:37:18.244Z,60.7
2017-03-19T19:42:19.368Z,60.6
2017-03-19T19:47:20.474Z,60.5
2017-03-19T19:52:21.601Z,60
2017-03-19T19:57:22.741Z,59.9
2017-03-19T20:02:23.876Z,59.9
2017-03-19T20:07:24.943Z,59.8
2017-03-19T20:12:26.006Z,59.8
2017-03-19T20:17:27.165Z,59.5
2017-03-19T20:22:28.252Z,59.2
2017-03-19T20:27:29.365Z,58.9
2017-03-19T20:32:30.554Z,58.9
2017-03-19T20:37:31.665Z,58.9
2017-03-19T20:42:32.788Z,58.7
2017-03-19T20:47:33.920Z,59
2017-03-19T20:52:35.052Z,59
2017-03-19T20:57:36.189Z,59
2017-03-19T21:02:37.325Z,59
2017-03-19T21:07:38.468Z,59
2017-03-19T21:12:39.537Z,59
2017-03-19T21:17:40.581Z,59.1
2017-03-19T21:22:41.707Z,59.2
2017-03-19T21:27:42.814Z,59.5
2017-03-19T21:32:43.974Z,59.8
2017-03-19T21:37:45.065Z,59.9
2017-03-19T21:42:46.129Z,60.2
2017-03-19T21:47:47.246Z,60.5
2017-03-19T21:52:48.364Z,60.6
2017-03-19T21:57:49.538Z,60.9
2017-03-19T22:02:50.627Z,61.1
2017-03-19T22:07:51.765Z,61.5
2017-03-19T22:12:52.913Z,61.6
2017-03-19T22:17:54.041Z,61.6
2017-03-19T22:22:55.163Z,61.8
2017-03-19T22:27:56.302Z,61.6
2017-03-19T22:32:57.364Z,61.4
2017-03-19T22:37:58.447Z,61.3
2017-03-19T22:42:59.447Z,61.1
2017-03-19T22:48:00.531Z,61.1
2017-03-19T22:53:01.596Z,61.2
2017-03-19T22:58:02.646Z,61.6
2017-03-19T23:03:03.811Z,62
2017-03-19T23:08:04.902Z,62.1
2017-03-19T23:13:06.047Z,62.2
2017-03-19T23:18:07.222Z,62
2017-03-19T23:23:08.334Z,61.7
2017-03-19T23:28:09.452Z,61.4
2017-03-19T23:33:10.641Z,61.3
2017-03-19T23:38:11.772Z,61
2017-03-19T23:43:12.912Z,60.5
2017-03-19T23:48:14.009Z,60.1
2017-03-19T23:53:15.112Z,59.8
2017-03-19T23:58:16.247Z,59.3
